Warner, Oklahoma
Current Conditions -  °F | °C
As of 10:53 PM on Tuesday 21 Oct 2014 (Local Time) from KMKO Reporting Station
Clear Clear  
Wind Chill: 62°   Ceiling: Unl
Heat Index: 62°   Visibility: 8mi
Dew Point: 60°   Wind: 5mph
Humidity: 93%   Direction: 140°SE
Pressure: 30.09"   Gusts: NA
Location:  35.49°N, 95.31°W
Report Text: KMKO 220353Z AUTO 14004KT 8SM CLR 17/16 A3009 RMK AO2 SLP185 T01670156
Loading
Personal Weather Stations






























Interactive Weather Map
Tropical Storm Tracking
New forecast layout! Learn more

10-Day Weather Forecast

Advertisements
Track Severe Weather on mobile